sensor_id;sensor_type;location;lat;lon;timestamp;pressure;altitude;pressure_sealevel;temperature;humidity
59367;BME280;45163;47.690;11.770;2023-09-18T00:00:07;93116.22;;;15.33;100.00
59367;BME280;45163;47.690;11.770;2023-09-18T00:02:38;93111.09;;;15.26;100.00
59367;BME280;45163;47.690;11.770;2023-09-18T00:05:05;93113.28;;;15.37;100.00
59367;BME280;45163;47.690;11.770;2023-09-18T00:07:31;93104.09;;;15.40;100.00
59367;BME280;45163;47.690;11.770;2023-09-18T00:09:56;93102.47;;;15.33;100.00
59367;BME280;45163;47.690;11.770;2023-09-18T00:12:22;93103.41;;;15.30;100.00
59367;BME280;45163;47.690;11.770;2023-09-18T00:14:49;93104.03;;;15.25;100.00
59367;BME280;45163;47.690;11.770;2023-09-18T00:17:15;93094.09;;;15.28;100.00
59367;BME280;45163;47.690;11.770;2023-09-18T00:19:43;93095.66;;;15.82;100.00
59367;BME280;45163;47.690;11.770;2023-09-18T00:22:09;93087.88;;;15.81;100.00
59367;BME280;45163;47.690;11.770;2023-09-18T00:24:35;93086.81;;;15.78;100.00
59367;BME280;45163;47.690;11.770;2023-09-18T00:27:01;93071.38;;;15.81;100.00
59367;BME280;45163;47.690;11.770;2023-09-18T00:29:26;93063.91;;;16.46;100.00
59367;BME280;45163;47.690;11.770;2023-09-18T00:31:52;93056.63;;;16.78;100.00
59367;BME280;45163;47.690;11.770;2023-09-18T00:34:18;93064.56;;;16.91;100.00
59367;BME280;45163;47.690;11.770;2023-09-18T00:36:44;93062.00;;;16.87;100.00
59367;BME280;45163;47.690;11.770;2023-09-18T00:39:10;93057.19;;;16.82;100.00
59367;BME280;45163;47.690;11.770;2023-09-18T00:41:36;93068.69;;;17.01;100.00
59367;BME280;45163;47.690;11.770;2023-09-18T00:44:04;93060.81;;;16.59;100.00
59367;BME280;45163;47.690;11.770;2023-09-18T00:46:31;93051.94;;;16.49;100.00
59367;BME280;45163;47.690;11.770;2023-09-18T00:48:57;93045.28;;;16.06;100.00
59367;BME280;45163;47.690;11.770;2023-09-18T00:51:24;93044.22;;;16.03;100.00
59367;BME280;45163;47.690;11.770;2023-09-18T00:53:50;93055.13;;;16.12;100.00
59367;BME280;45163;47.690;11.770;2023-09-18T00:56:17;93067.28;;;16.06;100.00
59367;BME280;45163;47.690;11.770;2023-09-18T00:58:45;93067.09;;;16.09;100.00
59367;BME280;45163;47.690;11.770;2023-09-18T01:01:12;93060.81;;;16.09;100.00
59367;BME280;45163;47.690;11.770;2023-09-18T01:03:42;93059.38;;;16.13;100.00
59367;BME280;45163;47.690;11.770;2023-09-18T01:06:08;93072.69;;;15.85;100.00
59367;BME280;45163;47.690;11.770;2023-09-18T01:08:33;93068.69;;;15.72;100.00
59367;BME280;45163;47.690;11.770;2023-09-18T01:11:06;93062.50;;;15.62;100.00
59367;BME280;45163;47.690;11.770;2023-09-18T01:13:38;93061.53;;;15.50;100.00
59367;BME280;45163;47.690;11.770;2023-09-18T01:17:15;93055.44;;;15.46;100.00
59367;BME280;45163;47.690;11.770;2023-09-18T01:19:09;93058.44;;;15.18;100.00
59367;BME280;45163;47.690;11.770;2023-09-18T01:21:35;93047.97;;;15.08;100.00
59367;BME280;45163;47.690;11.770;2023-09-18T01:24:01;93040.59;;;15.14;100.00
59367;BME280;45163;47.690;11.770;2023-09-18T01:26:27;93038.25;;;15.22;100.00
59367;BME280;45163;47.690;11.770;2023-09-18T01:28:53;93035.06;;;15.53;100.00
59367;BME280;45163;47.690;11.770;2023-09-18T01:31:20;93031.88;;;15.69;100.00
59367;BME280;45163;47.690;11.770;2023-09-18T01:33:46;93038.16;;;15.69;100.00
59367;BME280;45163;47.690;11.770;2023-09-18T01:36:13;93034.25;;;16.06;100.00
59367;BME280;45163;47.690;11.770;2023-09-18T01:38:41;93028.34;;;16.13;100.00
59367;BME280;45163;47.690;11.770;2023-09-18T01:41:07;93031.59;;;16.11;100.00
59367;BME280;45163;47.690;11.770;2023-09-18T01:43:34;93029.97;;;16.05;100.00
59367;BME280;45163;47.690;11.770;2023-09-18T01:46:01;93029.00;;;16.23;100.00
59367;BME280;45163;47.690;11.770;2023-09-18T01:48:27;93034.22;;;16.21;100.00
59367;BME280;45163;47.690;11.770;2023-09-18T01:50:53;93015.16;;;16.52;100.00
59367;BME280;45163;47.690;11.770;2023-09-18T01:53:19;93009.53;;;16.61;100.00
59367;BME280;45163;47.690;11.770;2023-09-18T01:55:45;92994.59;;;16.33;100.00
59367;BME280;45163;47.690;11.770;2023-09-18T01:58:12;92995.09;;;16.16;100.00
59367;BME280;45163;47.690;11.770;2023-09-18T02:00:40;92993.34;;;15.99;100.00
59367;BME280;45163;47.690;11.770;2023-09-18T02:03:06;92994.88;;;15.85;100.00
59367;BME280;45163;47.690;11.770;2023-09-18T02:05:32;92992.41;;;16.02;100.00
59367;BME280;45163;47.690;11.770;2023-09-18T02:07:58;92991.78;;;16.27;100.00
59367;BME280;45163;47.690;11.770;2023-09-18T02:10:24;92993.31;;;16.13;100.00
59367;BME280;45163;47.690;11.770;2023-09-18T02:12:50;92995.78;;;16.26;100.00
59367;BME280;45163;47.690;11.770;2023-09-18T02:15:16;92978.03;;;16.48;100.00
59367;BME280;45163;47.690;11.770;2023-09-18T02:17:42;92975.59;;;16.90;100.00
59367;BME280;45163;47.690;11.770;2023-09-18T02:20:08;92971.03;;;17.08;100.00
59367;BME280;45163;47.690;11.770;2023-09-18T02:22:37;92954.28;;;17.11;100.00
59367;BME280;45163;47.690;11.770;2023-09-18T02:25:06;92964.41;;;17.00;100.00
59367;BME280;45163;47.690;11.770;2023-09-18T02:27:32;92962.19;;;17.04;100.00
59367;BME280;45163;47.690;11.770;2023-09-18T02:29:59;92964.88;;;17.18;100.00
59367;BME280;45163;47.690;11.770;2023-09-18T02:32:25;92960.88;;;17.20;100.00
59367;BME280;45163;47.690;11.770;2023-09-18T02:34:50;92968.91;;;16.97;100.00
59367;BME280;45163;47.690;11.770;2023-09-18T02:37:16;92978.31;;;16.50;100.00
59367;BME280;45163;47.690;11.770;2023-09-18T02:39:42;92972.06;;;16.14;100.00
59367;BME280;45163;47.690;11.770;2023-09-18T02:42:08;92966.63;;;16.19;100.00
59367;BME280;45163;47.690;11.770;2023-09-18T02:44:34;92966.94;;;16.07;100.00
59367;BME280;45163;47.690;11.770;2023-09-18T02:47:00;92968.06;;;16.00;100.00
59367;BME280;45163;47.690;11.770;2023-09-18T02:49:26;92958.13;;;15.88;100.00
59367;BME280;45163;47.690;11.770;2023-09-18T02:51:52;92955.88;;;15.72;100.00
59367;BME280;45163;47.690;11.770;2023-09-18T02:54:18;92949.91;;;15.73;100.00
59367;BME280;45163;47.690;11.770;2023-09-18T02:56:44;92936.59;;;16.01;100.00
59367;BME280;45163;47.690;11.770;2023-09-18T02:59:10;92940.97;;;15.78;100.00
59367;BME280;45163;47.690;11.770;2023-09-18T03:01:36;92937.47;;;15.78;100.00
59367;BME280;45163;47.690;11.770;2023-09-18T03:04:02;92938.88;;;15.88;100.00
59367;BME280;45163;47.690;11.770;2023-09-18T03:06:28;92923.72;;;15.78;100.00
59367;BME280;45163;47.690;11.770;2023-09-18T03:08:55;92923.06;;;15.68;100.00
59367;BME280;45163;47.690;11.770;2023-09-18T03:11:21;92929.91;;;15.43;100.00
59367;BME280;45163;47.690;11.770;2023-09-18T03:13:47;92928.47;;;15.33;100.00
59367;BME280;45163;47.690;11.770;2023-09-18T03:16:13;92920.38;;;15.29;100.00
59367;BME280;45163;47.690;11.770;2023-09-18T03:18:39;92912.91;;;15.15;100.00
59367;BME280;45163;47.690;11.770;2023-09-18T03:21:05;92916.63;;;15.27;100.00
59367;BME280;45163;47.690;11.770;2023-09-18T03:23:31;92918.88;;;15.13;100.00
59367;BME280;45163;47.690;11.770;2023-09-18T03:25:57;92920.69;;;15.02;100.00
59367;BME280;45163;47.690;11.770;2023-09-18T03:28:25;92910.06;;;15.09;100.00
59367;BME280;45163;47.690;11.770;2023-09-18T03:30:51;92907.13;;;15.28;100.00
59367;BME280;45163;47.690;11.770;2023-09-18T03:33:17;92911.41;;;15.14;100.00
59367;BME280;45163;47.690;11.770;2023-09-18T03:35:51;92907.97;;;15.49;100.00
59367;BME280;45163;47.690;11.770;2023-09-18T03:38:20;92905.41;;;15.15;100.00
59367;BME280;45163;47.690;11.770;2023-09-18T03:40:46;92908.75;;;15.34;100.00
59367;BME280;45163;47.690;11.770;2023-09-18T03:43:12;92892.22;;;15.49;100.00
59367;BME280;45163;47.690;11.770;2023-09-18T03:45:38;92884.28;;;15.36;100.00
59367;BME280;45163;47.690;11.770;2023-09-18T03:48:06;92879.72;;;15.18;100.00
59367;BME280;45163;47.690;11.770;2023-09-18T03:50:32;92877.28;;;15.06;100.00
59367;BME280;45163;47.690;11.770;2023-09-18T03:52:58;92879.84;;;15.09;100.00
59367;BME280;45163;47.690;11.770;2023-09-18T03:55:25;92883.78;;;15.08;100.00
59367;BME280;45163;47.690;11.770;2023-09-18T03:57:52;92890.34;;;15.26;100.00
59367;BME280;45163;47.690;11.770;2023-09-18T04:00:18;92881.06;;;15.23;100.00
59367;BME280;45163;47.690;11.770;2023-09-18T04:02:44;92877.94;;;15.30;100.00
59367;BME280;45163;47.690;11.770;2023-09-18T04:05:10;92875.38;;;15.12;100.00
59367;BME280;45163;47.690;11.770;2023-09-18T04:07:36;92875.94;;;15.01;100.00
59367;BME280;45163;47.690;11.770;2023-09-18T04:10:03;92878.41;;;14.99;100.00
59367;BME280;45163;47.690;11.770;2023-09-18T04:12:29;92875.63;;;15.29;100.00
59367;BME280;45163;47.690;11.770;2023-09-18T04:14:55;92869.47;;;15.34;100.00
59367;BME280;45163;47.690;11.770;2023-09-18T04:17:21;92862.84;;;15.26;100.00
59367;BME280;45163;47.690;11.770;2023-09-18T04:19:47;92857.63;;;15.13;100.00
59367;BME280;45163;47.690;11.770;2023-09-18T04:22:14;92869.28;;;15.08;100.00
59367;BME280;45163;47.690;11.770;2023-09-18T04:24:40;92866.94;;;14.86;100.00
59367;BME280;45163;47.690;11.770;2023-09-18T04:27:06;92864.16;;;14.71;100.00
59367;BME280;45163;47.690;11.770;2023-09-18T04:29:32;92872.66;;;14.58;100.00
59367;BME280;45163;47.690;11.770;2023-09-18T04:31:58;92875.34;;;14.67;100.00
59367;BME280;45163;47.690;11.770;2023-09-18T04:34:24;92869.94;;;14.73;100.00
59367;BME280;45163;47.690;11.770;2023-09-18T04:36:50;92874.97;;;14.75;100.00
59367;BME280;45163;47.690;11.770;2023-09-18T04:39:16;92870.69;;;14.74;100.00
59367;BME280;45163;47.690;11.770;2023-09-18T04:41:42;92876.50;;;14.76;100.00
59367;BME280;45163;47.690;11.770;2023-09-18T04:44:08;92884.16;;;14.72;100.00
59367;BME280;45163;47.690;11.770;2023-09-18T04:46:35;92878.09;;;14.67;100.00
59367;BME280;45163;47.690;11.770;2023-09-18T04:49:02;92871.25;;;14.63;100.00
59367;BME280;45163;47.690;11.770;2023-09-18T04:51:31;92858.28;;;14.63;100.00
59367;BME280;45163;47.690;11.770;2023-09-18T04:53:58;92867.16;;;14.58;100.00
59367;BME280;45163;47.690;11.770;2023-09-18T04:56:25;92875.94;;;14.48;100.00
59367;BME280;45163;47.690;11.770;2023-09-18T04:58:52;92872.88;;;14.45;100.00
59367;BME280;45163;47.690;11.770;2023-09-18T05:01:18;92874.78;;;14.39;100.00
59367;BME280;45163;47.690;11.770;2023-09-18T05:03:44;92874.66;;;14.34;100.00
59367;BME280;45163;47.690;11.770;2023-09-18T05:06:10;92869.56;;;14.41;100.00
59367;BME280;45163;47.690;11.770;2023-09-18T05:08:36;92867.88;;;14.44;100.00
59367;BME280;45163;47.690;11.770;2023-09-18T05:11:03;92865.59;;;14.42;100.00
59367;BME280;45163;47.690;11.770;2023-09-18T05:13:29;92866.63;;;14.45;100.00
59367;BME280;45163;47.690;11.770;2023-09-18T05:15:55;92862.28;;;14.38;100.00
59367;BME280;45163;47.690;11.770;2023-09-18T05:18:21;92855.56;;;14.39;100.00
59367;BME280;45163;47.690;11.770;2023-09-18T05:20:47;92847.41;;;14.45;100.00
59367;BME280;45163;47.690;11.770;2023-09-18T05:23:13;92848.66;;;14.44;100.00
59367;BME280;45163;47.690;11.770;2023-09-18T05:25:39;92857.81;;;14.41;100.00
59367;BME280;45163;47.690;11.770;2023-09-18T05:28:08;92845.72;;;14.48;100.00
59367;BME280;45163;47.690;11.770;2023-09-18T05:30:35;92835.53;;;14.63;100.00
59367;BME280;45163;47.690;11.770;2023-09-18T05:33:05;92834.31;;;14.64;100.00
59367;BME280;45163;47.690;11.770;2023-09-18T05:35:32;92841.72;;;14.73;100.00
59367;BME280;45163;47.690;11.770;2023-09-18T05:37:58;92832.81;;;14.92;100.00
59367;BME280;45163;47.690;11.770;2023-09-18T05:40:26;92825.53;;;14.89;100.00
59367;BME280;45163;47.690;11.770;2023-09-18T05:42:53;92824.66;;;14.98;100.00
59367;BME280;45163;47.690;11.770;2023-09-18T05:45:20;92833.28;;;15.06;100.00
59367;BME280;45163;47.690;11.770;2023-09-18T05:47:47;92831.38;;;15.27;100.00
59367;BME280;45163;47.690;11.770;2023-09-18T05:50:13;92833.06;;;15.39;100.00
59367;BME280;45163;47.690;11.770;2023-09-18T05:52:46;92841.47;;;15.65;100.00
59367;BME280;45163;47.690;11.770;2023-09-18T05:55:13;92845.03;;;15.86;100.00
59367;BME280;45163;47.690;11.770;2023-09-18T05:57:39;92836.28;;;16.08;100.00
59367;BME280;45163;47.690;11.770;2023-09-18T06:00:06;92838.44;;;16.39;100.00
59367;BME280;45163;47.690;11.770;2023-09-18T06:02:32;92843.09;;;16.53;100.00
59367;BME280;45163;47.690;11.770;2023-09-18T06:04:59;92827.66;;;16.82;100.00
59367;BME280;45163;47.690;11.770;2023-09-18T06:07:29;92834.78;;;16.94;100.00
59367;BME280;45163;47.690;11.770;2023-09-18T06:09:57;92836.25;;;17.21;100.00
59367;BME280;45163;47.690;11.770;2023-09-18T06:12:23;92834.78;;;17.52;100.00
59367;BME280;45163;47.690;11.770;2023-09-18T06:14:49;92837.16;;;17.70;100.00
59367;BME280;45163;47.690;11.770;2023-09-18T06:17:16;92826.22;;;17.87;100.00
59367;BME280;45163;47.690;11.770;2023-09-18T06:19:43;92824.19;;;17.82;100.00
59367;BME280;45163;47.690;11.770;2023-09-18T06:22:09;92820.34;;;18.16;100.00
59367;BME280;45163;47.690;11.770;2023-09-18T06:24:35;92829.53;;;18.45;100.00
59367;BME280;45163;47.690;11.770;2023-09-18T06:27:02;92825.78;;;18.54;100.00
59367;BME280;45163;47.690;11.770;2023-09-18T06:29:33;92825.16;;;18.22;100.00
59367;BME280;45163;47.690;11.770;2023-09-18T06:32:00;92833.22;;;17.77;100.00
59367;BME280;45163;47.690;11.770;2023-09-18T06:34:27;92834.59;;;17.66;100.00
59367;BME280;45163;47.690;11.770;2023-09-18T06:36:54;92841.72;;;18.16;100.00
59367;BME280;45163;47.690;11.770;2023-09-18T06:39:20;92845.16;;;18.59;100.00
59367;BME280;45163;47.690;11.770;2023-09-18T06:41:48;92840.47;;;18.88;100.00
59367;BME280;45163;47.690;11.770;2023-09-18T06:44:14;92842.09;;;19.62;100.00
59367;BME280;45163;47.690;11.770;2023-09-18T06:46:39;92836.88;;;20.45;100.00
59367;BME280;45163;47.690;11.770;2023-09-18T06:49:06;92844.78;;;20.87;100.00
59367;BME280;45163;47.690;11.770;2023-09-18T06:51:32;92849.88;;;21.60;100.00
59367;BME280;45163;47.690;11.770;2023-09-18T06:53:58;92850.47;;;21.06;100.00
59367;BME280;45163;47.690;11.770;2023-09-18T06:56:24;92854.19;;;21.86;100.00
59367;BME280;45163;47.690;11.770;2023-09-18T06:58:51;92859.16;;;22.29;100.00
59367;BME280;45163;47.690;11.770;2023-09-18T07:01:20;92862.69;;;21.69;100.00
59367;BME280;45163;47.690;11.770;2023-09-18T07:03:47;92859.34;;;21.76;100.00
59367;BME280;45163;47.690;11.770;2023-09-18T07:06:14;92861.94;;;22.72;100.00
59367;BME280;45163;47.690;11.770;2023-09-18T07:08:46;92871.09;;;23.10;100.00
59367;BME280;45163;47.690;11.770;2023-09-18T07:11:16;92863.16;;;23.52;100.00
59367;BME280;45163;47.690;11.770;2023-09-18T07:13:42;92870.94;;;23.92;100.00
59367;BME280;45163;47.690;11.770;2023-09-18T07:16:09;92856.84;;;24.29;100.00
59367;BME280;45163;47.690;11.770;2023-09-18T07:18:36;92865.97;;;24.30;100.00
59367;BME280;45163;47.690;11.770;2023-09-18T07:21:02;92865.59;;;24.79;100.00
59367;BME280;45163;47.690;11.770;2023-09-18T07:23:28;92856.94;;;25.30;100.00
59367;BME280;45163;47.690;11.770;2023-09-18T07:25:54;92856.47;;;24.39;100.00
59367;BME280;45163;47.690;11.770;2023-09-18T07:28:20;92855.06;;;24.45;100.00
59367;BME280;45163;47.690;11.770;2023-09-18T07:30:46;92864.34;;;24.08;100.00
59367;BME280;45163;47.690;11.770;2023-09-18T07:33:13;92855.81;;;24.59;100.00
59367;BME280;45163;47.690;11.770;2023-09-18T07:35:41;92851.50;;;24.98;100.00
59367;BME280;45163;47.690;11.770;2023-09-18T07:38:07;92856.47;;;26.15;100.00
59367;BME280;45163;47.690;11.770;2023-09-18T07:40:33;92844.66;;;26.58;100.00
59367;BME280;45163;47.690;11.770;2023-09-18T07:42:59;92838.63;;;27.12;95.68
59367;BME280;45163;47.690;11.770;2023-09-18T07:45:25;92840.44;;;27.53;90.09
59367;BME280;45163;47.690;11.770;2023-09-18T07:47:51;92838.78;;;27.58;91.62
59367;BME280;45163;47.690;11.770;2023-09-18T07:50:17;92832.53;;;28.18;89.87
59367;BME280;45163;47.690;11.770;2023-09-18T07:52:43;92837.19;;;28.62;85.28
59367;BME280;45163;47.690;11.770;2023-09-18T07:55:09;92837.34;;;28.71;87.01
59367;BME280;45163;47.690;11.770;2023-09-18T07:57:35;92843.88;;;28.82;82.81
59367;BME280;45163;47.690;11.770;2023-09-18T08:00:04;92849.53;;;28.66;84.30
59367;BME280;45163;47.690;11.770;2023-09-18T08:02:33;92853.13;;;29.30;84.03
59367;BME280;45163;47.690;11.770;2023-09-18T08:05:01;92860.59;;;28.72;82.41
59367;BME280;45163;47.690;11.770;2023-09-18T08:07:28;92857.97;;;28.05;83.10
59367;BME280;45163;47.690;11.770;2023-09-18T08:09:54;92862.81;;;27.89;86.38
59367;BME280;45163;47.690;11.770;2023-09-18T08:12:20;92873.56;;;27.70;89.14
59367;BME280;45163;47.690;11.770;2023-09-18T08:14:46;92881.97;;;27.62;87.49
59367;BME280;45163;47.690;11.770;2023-09-18T08:17:12;92895.56;;;28.25;81.39
59367;BME280;45163;47.690;11.770;2023-09-18T08:19:38;92887.13;;;28.02;79.57
59367;BME280;45163;47.690;11.770;2023-09-18T08:22:05;92882.25;;;27.36;81.70
59367;BME280;45163;47.690;11.770;2023-09-18T08:24:31;92884.19;;;27.56;84.02
59367;BME280;45163;47.690;11.770;2023-09-18T08:26:57;92881.69;;;27.96;88.21
59367;BME280;45163;47.690;11.770;2023-09-18T08:29:23;92881.09;;;27.75;84.81
59367;BME280;45163;47.690;11.770;2023-09-18T08:31:49;92880.50;;;27.17;91.70
59367;BME280;45163;47.690;11.770;2023-09-18T08:34:16;92874.25;;;27.40;89.59
59367;BME280;45163;47.690;11.770;2023-09-18T08:36:42;92884.34;;;27.43;92.11
59367;BME280;45163;47.690;11.770;2023-09-18T08:39:08;92882.84;;;27.49;89.96
59367;BME280;45163;47.690;11.770;2023-09-18T08:41:38;92884.53;;;27.08;98.83
59367;BME280;45163;47.690;11.770;2023-09-18T08:44:08;92891.44;;;27.44;93.95
59367;BME280;45163;47.690;11.770;2023-09-18T08:46:36;92902.91;;;27.61;92.33
59367;BME280;45163;47.690;11.770;2023-09-18T08:49:04;92905.59;;;27.82;90.17
59367;BME280;45163;47.690;11.770;2023-09-18T08:51:30;92902.69;;;27.51;100.00
59367;BME280;45163;47.690;11.770;2023-09-18T08:53:57;92911.41;;;27.40;100.00
59367;BME280;45163;47.690;11.770;2023-09-18T08:56:24;92911.22;;;26.73;95.84
59367;BME280;45163;47.690;11.770;2023-09-18T08:58:50;92916.75;;;26.94;99.60
59367;BME280;45163;47.690;11.770;2023-09-18T09:01:16;92904.28;;;26.46;91.87
59367;BME280;45163;47.690;11.770;2023-09-18T09:03:43;92909.06;;;25.96;88.80
59367;BME280;45163;47.690;11.770;2023-09-18T09:06:12;92901.94;;;25.40;92.93
59367;BME280;45163;47.690;11.770;2023-09-18T09:08:39;92908.13;;;26.35;90.40
59367;BME280;45163;47.690;11.770;2023-09-18T09:11:05;92908.28;;;26.50;84.42
59367;BME280;45163;47.690;11.770;2023-09-18T09:13:31;92916.19;;;26.18;87.74
59367;BME280;45163;47.690;11.770;2023-09-18T09:15:58;92918.88;;;25.55;92.01
59367;BME280;45163;47.690;11.770;2023-09-18T09:18:26;92921.16;;;25.43;91.42
59367;BME280;45163;47.690;11.770;2023-09-18T09:20:57;92922.16;;;25.06;92.12
59367;BME280;45163;47.690;11.770;2023-09-18T09:23:25;92924.50;;;24.62;100.00
59367;BME280;45163;47.690;11.770;2023-09-18T09:25:51;92917.25;;;24.27;100.00
59367;BME280;45163;47.690;11.770;2023-09-18T09:28:31;92929.53;;;24.05;100.00
59367;BME280;45163;47.690;11.770;2023-09-18T09:31:01;92932.47;;;24.26;100.00
59367;BME280;45163;47.690;11.770;2023-09-18T09:33:31;92947.03;;;24.38;100.00
59367;BME280;45163;47.690;11.770;2023-09-18T09:35:58;92955.41;;;24.19;100.00
59367;BME280;45163;47.690;11.770;2023-09-18T09:38:30;92932.66;;;24.87;100.00
59367;BME280;45163;47.690;11.770;2023-09-18T09:41:04;92943.19;;;25.47;96.09
59367;BME280;45163;47.690;11.770;2023-09-18T09:43:35;92946.78;;;25.21;99.35
59367;BME280;45163;47.690;11.770;2023-09-18T09:46:02;92957.81;;;25.00;100.00
59367;BME280;45163;47.690;11.770;2023-09-18T09:48:28;92960.81;;;25.28;100.00
59367;BME280;45163;47.690;11.770;2023-09-18T09:50:59;92955.22;;;25.28;100.00
59367;BME280;45163;47.690;11.770;2023-09-18T09:53:45;92965.59;;;24.16;100.00
59367;BME280;45163;47.690;11.770;2023-09-18T09:56:17;92969.44;;;24.13;100.00
59367;BME280;45163;47.690;11.770;2023-09-18T09:59:03;92982.50;;;23.86;100.00
59367;BME280;45163;47.690;11.770;2023-09-18T10:01:35;92991.06;;;23.75;100.00
59367;BME280;45163;47.690;11.770;2023-09-18T10:04:08;92995.78;;;23.80;100.00
59367;BME280;45163;47.690;11.770;2023-09-18T10:06:36;92986.34;;;23.64;100.00
59367;BME280;45163;47.690;11.770;2023-09-18T10:09:03;92994.59;;;23.75;100.00
59367;BME280;45163;47.690;11.770;2023-09-18T10:11:34;93003.06;;;23.64;100.00
59367;BME280;45163;47.690;11.770;2023-09-18T10:14:16;92996.03;;;23.57;100.00
59367;BME280;45163;47.690;11.770;2023-09-18T10:16:53;93000.16;;;23.32;100.00
59367;BME280;45163;47.690;11.770;2023-09-18T10:22:05;93000.84;;;22.95;100.00
59367;BME280;45163;47.690;11.770;2023-09-18T10:24:37;93010.50;;;22.88;100.00
59367;BME280;45163;47.690;11.770;2023-09-18T10:27:04;93010.34;;;22.80;100.00
59367;BME280;45163;47.690;11.770;2023-09-18T10:29:36;93012.59;;;22.82;100.00
59367;BME280;45163;47.690;11.770;2023-09-18T10:32:07;93006.88;;;22.99;100.00
59367;BME280;45163;47.690;11.770;2023-09-18T10:34:36;93007.13;;;23.01;100.00
59367;BME280;45163;47.690;11.770;2023-09-18T10:37:03;93002.28;;;23.26;100.00
59367;BME280;45163;47.690;11.770;2023-09-18T10:39:37;93009.53;;;23.34;100.00
59367;BME280;45163;47.690;11.770;2023-09-18T10:42:10;93005.59;;;22.75;100.00
59367;BME280;45163;47.690;11.770;2023-09-18T10:44:37;93006.53;;;22.83;100.00
59367;BME280;45163;47.690;11.770;2023-09-18T10:47:06;92996.84;;;23.15;100.00
59367;BME280;45163;47.690;11.770;2023-09-18T10:49:34;93004.88;;;23.43;100.00
59367;BME280;45163;47.690;11.770;2023-09-18T10:52:01;93004.41;;;23.39;100.00
59367;BME280;45163;47.690;11.770;2023-09-18T10:54:31;93011.09;;;23.49;100.00
59367;BME280;45163;47.690;11.770;2023-09-18T10:56:57;93006.53;;;23.51;100.00
59367;BME280;45163;47.690;11.770;2023-09-18T10:59:23;93014.88;;;23.51;100.00
59367;BME280;45163;47.690;11.770;2023-09-18T11:01:50;93016.75;;;23.24;100.00
59367;BME280;45163;47.690;11.770;2023-09-18T11:04:20;93015.22;;;23.23;100.00
59367;BME280;45163;47.690;11.770;2023-09-18T11:09:28;93028.06;;;22.77;100.00
59367;BME280;45163;47.690;11.770;2023-09-18T11:14:45;93022.28;;;22.75;100.00
59367;BME280;45163;47.690;11.770;2023-09-18T11:20:21;93022.94;;;22.87;100.00
59367;BME280;45163;47.690;11.770;2023-09-18T11:25:41;93018.81;;;23.18;100.00
59367;BME280;45163;47.690;11.770;2023-09-18T11:28:22;93025.09;;;23.43;100.00
59367;BME280;45163;47.690;11.770;2023-09-18T11:30:53;93027.34;;;23.26;100.00
59367;BME280;45163;47.690;11.770;2023-09-18T11:33:38;93034.22;;;22.70;100.00
59367;BME280;45163;47.690;11.770;2023-09-18T11:36:12;93039.59;;;22.62;100.00
59367;BME280;45163;47.690;11.770;2023-09-18T11:38:53;93055.97;;;22.00;100.00
59367;BME280;45163;47.690;11.770;2023-09-18T11:41:23;93063.78;;;21.55;100.00
59367;BME280;45163;47.690;11.770;2023-09-18T11:43:51;93068.41;;;21.19;100.00
59367;BME280;45163;47.690;11.770;2023-09-18T11:46:19;93082.38;;;20.79;100.00
59367;BME280;45163;47.690;11.770;2023-09-18T11:48:49;93073.78;;;20.44;100.00
59367;BME280;45163;47.690;11.770;2023-09-18T11:51:22;93086.63;;;20.24;100.00
59367;BME280;45163;47.690;11.770;2023-09-18T11:53:54;93095.22;;;20.37;100.00
59367;BME280;45163;47.690;11.770;2023-09-18T11:56:21;93091.09;;;19.94;100.00
59367;BME280;45163;47.690;11.770;2023-09-18T11:58:48;93095.63;;;19.85;100.00
59367;BME280;45163;47.690;11.770;2023-09-18T12:01:14;93106.69;;;19.80;100.00
59367;BME280;45163;47.690;11.770;2023-09-18T12:03:41;93119.50;;;19.66;100.00
59367;BME280;45163;47.690;11.770;2023-09-18T12:06:08;93119.09;;;19.41;100.00
59367;BME280;45163;47.690;11.770;2023-09-18T12:08:39;93107.94;;;19.25;100.00
59367;BME280;45163;47.690;11.770;2023-09-18T12:11:06;93120.97;;;19.13;100.00
59367;BME280;45163;47.690;11.770;2023-09-18T12:13:32;93114.16;;;19.14;100.00
59367;BME280;45163;47.690;11.770;2023-09-18T12:18:24;93121.16;;;19.04;100.00
59367;BME280;45163;47.690;11.770;2023-09-18T12:20:51;93130.66;;;18.97;100.00
59367;BME280;45163;47.690;11.770;2023-09-18T12:23:17;93134.75;;;18.70;100.00
59367;BME280;45163;47.690;11.770;2023-09-18T12:25:50;93131.66;;;18.62;100.00
59367;BME280;45163;47.690;11.770;2023-09-18T12:28:22;93148.47;;;18.59;100.00
59367;BME280;45163;47.690;11.770;2023-09-18T12:30:48;93149.41;;;18.50;100.00
59367;BME280;45163;47.690;11.770;2023-09-18T12:33:16;93161.69;;;18.49;100.00
59367;BME280;45163;47.690;11.770;2023-09-18T12:35:43;93191.78;;;18.41;100.00
59367;BME280;45163;47.690;11.770;2023-09-18T12:38:17;93198.91;;;17.61;100.00
59367;BME280;45163;47.690;11.770;2023-09-18T12:40:48;93210.13;;;17.22;100.00
59367;BME280;45163;47.690;11.770;2023-09-18T12:43:14;93225.78;;;16.96;100.00
59367;BME280;45163;47.690;11.770;2023-09-18T12:45:42;93238.56;;;16.78;100.00
59367;BME280;45163;47.690;11.770;2023-09-18T12:48:09;93243.09;;;16.66;100.00
59367;BME280;45163;47.690;11.770;2023-09-18T12:50:36;93260.78;;;16.75;100.00
59367;BME280;45163;47.690;11.770;2023-09-18T12:53:12;93255.75;;;16.73;100.00
59367;BME280;45163;47.690;11.770;2023-09-18T12:55:39;93270.56;;;16.76;100.00
59367;BME280;45163;47.690;11.770;2023-09-18T12:58:06;93254.78;;;16.61;100.00